Time;durP1;ratioP1;P1;durP2;ratioP2;P2;SDS_P1;SDS_P2;PMS_P1;PMS_P2;Temp;Humidity;BMP_temperature;BMP_pressure;BME280_temperature;BME280_humidity;BME280_pressure;Samples;Min_cycle;Max_cycle;Signal;HPM_P1;HPM_P2
2022/10/17 00:01:18;;;;;;;3.55;2.58;;;;;;;12.82;nan;100924.66;5087305;28;20286;-68
2022/10/17 00:03:43;;;;;;;6.13;2.85;;;;;;;12.85;nan;100928.84;5087252;28;20435;-68
2022/10/17 00:06:11;;;;;;;5.43;3.03;;;;;;;12.87;nan;100926.84;5086184;28;20036;-69
2022/10/17 00:08:39;;;;;;;4.22;3.03;;;;;;;12.88;nan;100921.38;5084851;28;20036;-68
2022/10/17 00:11:08;;;;;;;4.38;2.90;;;;;;;12.88;nan;100926.69;5087152;28;20119;-68
2022/10/17 00:13:34;;;;;;;4.30;2.58;;;;;;;12.86;nan;100928.66;5068618;28;20032;-68
2022/10/17 00:16:00;;;;;;;3.35;2.33;;;;;;;12.84;nan;100924.50;5086205;28;20086;-68
2022/10/17 00:18:25;;;;;;;3.83;2.10;;;;;;;12.81;nan;100933.63;5086807;28;20431;-68
2022/10/17 00:20:51;;;;;;;3.58;2.70;;;;;;;12.78;nan;100939.25;5085713;28;20500;-68
2022/10/17 00:23:17;;;;;;;4.72;2.70;;;;;;;12.75;nan;100927.13;5091582;28;20031;-68
2022/10/17 00:25:42;;;;;;;3.20;2.00;;;;;;;12.73;nan;100933.56;5086184;28;20040;-68
2022/10/17 00:28:09;;;;;;;2.80;2.17;;;;;;;12.72;nan;100931.91;5086455;28;20545;-69
2022/10/17 00:30:34;;;;;;;4.55;2.40;;;;;;;12.67;nan;100931.53;5067551;28;20052;-68
2022/10/17 00:32:59;;;;;;;3.22;2.40;;;;;;;12.65;nan;100939.63;5068418;28;20068;-68
2022/10/17 00:35:25;;;;;;;3.25;2.17;;;;;;;12.62;nan;100936.47;5068825;28;20048;-68
2022/10/17 00:37:50;;;;;;;3.88;2.50;;;;;;;12.58;nan;100945.72;5086911;28;20097;-68
2022/10/17 00:40:15;;;;;;;3.40;2.22;;;;;;;12.57;nan;100939.59;5068044;28;20035;-68
2022/10/17 00:42:41;;;;;;;4.47;2.90;;;;;;;12.60;nan;100943.75;5085846;28;20071;-68
2022/10/17 00:45:22;;;;;;;5.50;2.90;;;;;;;12.58;nan;100937.75;5086829;28;20060;-68
2022/10/17 00:47:54;;;;;;;5.32;3.15;;;;;;;12.58;nan;100945.72;5087637;28;20512;-68
2022/10/17 00:50:20;;;;;;;6.53;3.13;;;;;;;12.60;nan;100946.41;5084948;28;20043;-68
2022/10/17 00:52:47;;;;;;;4.47;2.75;;;;;;;12.57;nan;100952.84;5085925;28;20111;-68
2022/10/17 00:55:18;;;;;;;3.20;2.25;;;;;;;12.53;nan;100944.34;5086704;28;20072;-68
2022/10/17 00:57:44;;;;;;;3.53;2.20;;;;;;;12.51;nan;100949.00;5085245;28;20032;-68
2022/10/17 01:00:10;;;;;;;3.90;2.40;;;;;;;12.51;nan;100958.75;5085284;28;20028;-68
2022/10/17 01:02:36;;;;;;;3.53;2.20;;;;;;;12.49;nan;100955.47;5086203;28;20523;-68
2022/10/17 01:05:01;;;;;;;3.72;2.35;;;;;;;12.48;nan;100954.59;5085875;28;20036;-68
2022/10/17 01:07:28;;;;;;;4.00;2.47;;;;;;;12.49;nan;100961.59;5067930;28;20405;-69
2022/10/17 01:09:54;;;;;;;2.90;2.22;;;;;;;12.49;nan;100953.63;5084071;28;20442;-68
2022/10/17 01:12:21;;;;;;;5.00;2.70;;;;;;;12.47;nan;100954.78;5085387;28;20024;-69
2022/10/17 01:15:12;;;;;;;4.22;3.15;;;;;;;12.48;nan;100962.56;5087685;28;20077;-68
2022/10/17 01:18:14;;;;;;;4.47;2.60;;;;;;;12.48;nan;100964.38;5088400;28;20582;-68
2022/10/17 01:21:01;;;;;;;6.65;3.15;;;;;;;12.52;nan;100973.72;5083884;28;20263;-68
2022/10/17 01:23:59;;;;;;;4.90;3.10;;;;;;;12.52;nan;100971.88;5076971;28;20358;-68
2022/10/17 01:26:52;;;;;;;5.78;3.08;;;;;;;12.51;nan;100974.69;5087345;28;20036;-68
2022/10/17 01:29:40;;;;;;;3.78;2.50;;;;;;;12.52;nan;100971.06;5085848;28;20031;-68
2022/10/17 01:32:18;;;;;;;4.40;2.20;;;;;;;12.49;nan;100972.19;5076046;28;20043;-68
2022/10/17 01:34:50;;;;;;;4.03;2.40;;;;;;;12.48;nan;100964.38;5086491;28;20106;-69
2022/10/17 01:37:23;;;;;;;4.28;2.30;;;;;;;12.49;nan;100964.25;5049703;28;20028;-68
2022/10/17 01:40:15;;;;;;;6.22;2.47;;;;;;;12.51;nan;100966.72;5067408;28;20109;-68
2022/10/17 01:43:06;;;;;;;2.67;2.05;;;;;;;12.49;nan;100966.91;5085751;28;20063;-68
2022/10/17 01:45:48;;;;;;;3.42;2.20;;;;;;;12.48;nan;100959.91;5084667;28;20067;-69
2022/10/17 01:48:22;;;;;;;4.40;2.30;;;;;;;12.47;nan;100958.25;5078171;28;20066;-68
2022/10/17 01:50:53;;;;;;;3.30;2.20;;;;;;;12.46;nan;100966.34;5084326;28;20036;-68
2022/10/17 01:53:28;;;;;;;3.05;2.15;;;;;;;12.45;nan;100964.69;5084836;28;20044;-68
2022/10/17 01:55:58;;;;;;;3.92;2.00;;;;;;;12.44;nan;100963.88;5084289;28;20036;-68
2022/10/17 01:58:35;;;;;;;2.75;2.00;;;;;;;12.44;nan;100958.56;5085428;28;20068;-69
2022/10/17 02:01:04;;;;;;;3.65;2.17;;;;;;;12.43;nan;100959.53;5083611;28;20037;-68
2022/10/17 02:03:31;;;;;;;3.70;2.50;;;;;;;12.45;nan;100954.91;5085780;28;20032;-68
2022/10/17 02:05:56;;;;;;;2.72;2.03;;;;;;;12.43;nan;100959.53;5097224;28;20050;-68
2022/10/17 02:08:46;;;;;;;5.45;2.33;;;;;;;12.41;nan;100950.06;5084768;28;20040;-69
2022/10/17 02:11:15;;;;;;;2.92;2.20;;;;;;;12.37;nan;100952.22;5084922;28;20278;-68
2022/10/17 02:13:51;;;;;;;4.80;2.10;;;;;;;12.36;nan;100953.19;5084750;28;20516;-69
2022/10/17 02:16:29;;;;;;;2.75;1.80;;;;;;;12.33;nan;100949.00;5083459;28;20131;-69
2022/10/17 02:19:16;;;;;;;5.30;2.10;;;;;;;12.34;nan;100949.84;5086575;28;20044;-68
2022/10/17 02:22:04;;;;;;;5.07;2.42;;;;;;;12.34;nan;100949.84;5088487;28;20117;-68
2022/10/17 02:24:34;;;;;;;3.55;2.50;;;;;;;12.36;nan;100955.00;5089224;28;20040;-69
2022/10/17 02:27:09;;;;;;;4.53;2.30;;;;;;;12.35;nan;100946.22;5081480;28;20069;-68
2022/10/17 02:30:14;;;;;;;4.57;2.40;;;;;;;12.36;nan;100952.34;5082666;28;20485;-68
2022/10/17 02:32:49;;;;;;;4.43;2.30;;;;;;;12.36;nan;100949.69;5075174;28;20036;-68
2022/10/17 02:35:15;;;;;;;3.63;2.50;;;;;;;12.38;nan;100948.56;5087608;28;20050;-68
2022/10/17 02:37:43;;;;;;;2.47;1.90;;;;;;;12.37;nan;100944.25;5089349;28;20032;-68
2022/10/17 02:40:10;;;;;;;2.80;2.00;;;;;;;12.34;nan;100955.16;5071572;28;20073;-68
2022/10/17 02:42:37;;;;;;;3.13;2.10;;;;;;;12.35;nan;100953.31;5088310;28;20036;-68
2022/10/17 02:45:05;;;;;;;3.30;1.90;;;;;;;12.33;nan;100956.97;5088740;28;20571;-68
2022/10/17 02:47:42;;;;;;;4.28;2.30;;;;;;;12.34;nan;100952.50;5088571;28;20085;-68
2022/10/17 02:50:08;;;;;;;2.92;1.90;;;;;;;12.35;nan;100954.19;5085364;28;20032;-68
2022/10/17 02:53:00;;;;;;;3.95;2.00;;;;;;;12.33;nan;100961.44;5087841;28;20039;-68
2022/10/17 02:55:32;;;;;;;3.50;1.80;;;;;;;12.30;nan;100959.09;5084833;28;20590;-69
2022/10/17 02:58:11;;;;;;;3.30;2.08;;;;;;;12.31;nan;100960.75;5087202;28;20400;-68
2022/10/17 03:00:39;;;;;;;2.90;2.20;;;;;;;12.35;nan;100958.63;5087621;28;20039;-69
2022/10/17 03:03:21;;;;;;;3.08;2.10;;;;;;;12.40;nan;100959.84;5087733;28;20081;-68
2022/10/17 03:05:46;;;;;;;2.42;1.77;;;;;;;12.43;nan;100958.72;5088848;28;20032;-68
2022/10/17 03:08:11;;;;;;;3.90;1.80;;;;;;;12.44;nan;100958.56;5084275;28;20409;-69
2022/10/17 03:10:37;;;;;;;4.22;2.10;;;;;;;12.45;nan;100956.75;5082065;28;20036;-69
2022/10/17 03:13:02;;;;;;;4.13;2.10;;;;;;;12.48;nan;100951.94;5088305;28;20847;-69
2022/10/17 03:15:27;;;;;;;2.83;2.08;;;;;;;12.50;nan;100949.16;5090435;28;20046;-69
2022/10/17 03:17:52;;;;;;;3.05;2.30;;;;;;;12.52;nan;100957.78;5090107;28;20044;-68
2022/10/17 03:20:18;;;;;;;2.65;1.95;;;;;;;12.52;nan;100966.59;5076721;28;20404;-68
2022/10/17 03:22:43;;;;;;;3.65;1.95;;;;;;;12.53;nan;100960.28;5057692;28;20036;-68
2022/10/17 03:25:08;;;;;;;2.60;1.90;;;;;;;12.53;nan;100960.28;5090987;28;20074;-68
2022/10/17 03:27:33;;;;;;;3.65;2.08;;;;;;;12.57;nan;100963.47;5089468;28;20040;-68
2022/10/17 03:29:59;;;;;;;3.20;1.90;;;;;;;12.60;nan;100960.50;5089902;28;20040;-68
2022/10/17 03:32:24;;;;;;;3.63;1.90;;;;;;;12.62;nan;100963.84;5083565;28;20124;-69
2022/10/17 03:34:49;;;;;;;2.70;2.00;;;;;;;12.65;nan;100962.69;5090507;28;20611;-68
2022/10/17 03:37:14;;;;;;;3.63;2.20;;;;;;;12.79;nan;100966.59;5089747;28;20146;-68
2022/10/17 03:39:40;;;;;;;3.97;2.13;;;;;;;12.94;nan;100957.94;5071204;28;20028;-68
2022/10/17 03:42:05;;;;;;;4.18;2.50;;;;;;;13.02;nan;100966.94;5089381;28;20044;-68
2022/10/17 03:44:30;;;;;;;3.28;2.30;;;;;;;13.05;nan;100961.31;5088699;28;20389;-68
2022/10/17 03:46:56;;;;;;;3.63;2.10;;;;;;;13.03;nan;100968.59;5068902;28;20448;-68
2022/10/17 03:49:22;;;;;;;2.50;2.00;;;;;;;13.01;nan;100965.25;5087966;28;20507;-68
2022/10/17 03:51:47;;;;;;;3.10;2.10;;;;;;;12.98;nan;100969.06;5087358;28;20048;-68
2022/10/17 03:54:12;;;;;;;2.80;1.98;;;;;;;12.97;nan;100970.06;5086888;28;20504;-68
2022/10/17 03:56:37;;;;;;;3.70;2.10;;;;;;;12.95;nan;100975.50;5087421;28;20036;-68
2022/10/17 03:59:03;;;;;;;2.60;2.10;;;;;;;12.95;nan;100982.66;5069627;28;20531;-68
2022/10/17 04:01:28;;;;;;;2.72;2.28;;;;;;;12.95;nan;100985.31;5086693;28;20043;-68
2022/10/17 04:03:56;;;;;;;2.85;2.50;;;;;;;12.95;nan;100998.56;5086641;28;20127;-68
2022/10/17 04:06:22;;;;;;;4.95;2.22;;;;;;;12.93;nan;100992.59;5061052;28;20041;-68
2022/10/17 04:08:48;;;;;;;2.35;2.10;;;;;;;12.93;nan;101000.53;5086023;28;20040;-68
2022/10/17 04:11:16;;;;;;;3.72;2.28;;;;;;;12.93;nan;101003.19;5087545;28;20032;-69
2022/10/17 04:13:43;;;;;;;2.38;2.10;;;;;;;12.88;nan;100997.53;5086963;28;20032;-68
2022/10/17 04:16:12;;;;;;;3.00;2.20;;;;;;;12.87;nan;101004.66;5086859;28;20040;-69
2022/10/17 04:18:37;;;;;;;3.17;2.13;;;;;;;12.86;nan;100997.66;5086410;28;20040;-68
2022/10/17 04:21:04;;;;;;;3.63;1.95;;;;;;;12.85;nan;101000.50;5070630;28;20070;-69
2022/10/17 04:23:30;;;;;;;2.85;2.22;;;;;;;12.83;nan;101008.59;5089427;28;20366;-68
2022/10/17 04:25:59;;;;;;;3.85;2.15;;;;;;;12.83;nan;101002.47;5080860;28;20035;-68
2022/10/17 04:28:26;;;;;;;3.13;2.00;;;;;;;12.80;nan;101008.06;5067826;28;20088;-69
2022/10/17 04:31:06;;;;;;;3.88;2.20;;;;;;;12.77;nan;101003.91;5085503;28;20495;-69
2022/10/17 04:33:32;;;;;;;3.22;2.17;;;;;;;12.76;nan;101015.53;5087282;28;20102;-68
2022/10/17 04:36:02;;;;;;;4.22;2.63;;;;;;;12.79;nan;101017.03;5086495;28;20524;-68
2022/10/17 04:38:28;;;;;;;5.45;2.45;;;;;;;12.78;nan;101020.69;5085643;28;20048;-68
2022/10/17 04:40:57;;;;;;;4.00;2.70;;;;;;;12.80;nan;101013.38;5066773;28;20401;-68
2022/10/17 04:43:22;;;;;;;4.25;3.20;;;;;;;12.78;nan;101005.59;5086066;28;20051;-68
2022/10/17 04:45:47;;;;;;;3.97;3.20;;;;;;;12.79;nan;101006.41;5086001;28;20412;-68
2022/10/17 04:48:12;;;;;;;4.07;2.95;;;;;;;12.80;nan;101008.06;5065254;28;20253;-69
2022/10/17 04:50:38;;;;;;;3.30;2.35;;;;;;;12.80;nan;101014.22;5087101;28;20096;-68
2022/10/17 04:53:03;;;;;;;3.90;2.40;;;;;;;12.75;nan;101003.22;5085330;28;20051;-68
2022/10/17 04:55:28;;;;;;;3.20;2.20;;;;;;;12.71;nan;100991.28;5085169;28;20067;-68
2022/10/17 04:57:53;;;;;;;2.53;1.92;;;;;;;12.68;nan;100997.72;5085698;28;20075;-69
2022/10/17 05:00:19;;;;;;;2.90;2.17;;;;;;;12.66;nan;101001.53;5071586;28;20040;-69
2022/10/17 05:02:44;;;;;;;5.18;2.60;;;;;;;12.63;nan;101005.31;5082900;28;20318;-68
2022/10/17 05:05:10;;;;;;;4.82;2.97;;;;;;;12.56;nan;101012.22;5085802;28;20039;-68
2022/10/17 05:07:39;;;;;;;4.22;2.45;;;;;;;12.55;nan;101015.84;5086615;28;20388;-68
2022/10/17 05:10:05;;;;;;;3.63;3.00;;;;;;;12.50;nan;101021.59;5084809;28;20032;-68
2022/10/17 05:12:30;;;;;;;4.65;2.63;;;;;;;12.47;nan;101023.75;5086290;28;20043;-68
2022/10/17 05:14:55;;;;;;;5.45;3.10;;;;;;;12.46;nan;101022.88;5088346;28;20073;-69
2022/10/17 05:17:21;;;;;;;3.70;2.70;;;;;;;12.40;nan;101018.19;5087798;28;20489;-68
2022/10/17 05:19:46;;;;;;;2.77;2.27;;;;;;;12.37;nan;101020.31;5083695;28;20044;-68
2022/10/17 05:22:11;;;;;;;4.97;2.65;;;;;;;12.33;nan;101022.44;5093347;28;20278;-69
2022/10/17 05:24:36;;;;;;;3.63;2.75;;;;;;;12.29;nan;101021.06;5105692;28;20035;-68
2022/10/17 05:27:05;;;;;;;3.83;2.67;;;;;;;12.27;nan;101021.22;5106189;28;20039;-68
2022/10/17 05:29:30;;;;;;;4.05;2.65;;;;;;;12.24;nan;101013.56;5088718;28;20035;-68
2022/10/17 05:31:56;;;;;;;3.85;2.55;;;;;;;12.23;nan;101021.69;5087937;28;20036;-68
2022/10/17 05:34:21;;;;;;;3.40;2.55;;;;;;;12.20;nan;101024.63;5086972;28;20116;-69
2022/10/17 05:36:46;;;;;;;3.78;2.30;;;;;;;12.17;nan;101028.41;5070197;28;20413;-68
2022/10/17 05:39:13;;;;;;;3.42;2.78;;;;;;;12.13;nan;101040.28;5087882;28;20032;-68
2022/10/17 05:41:39;;;;;;;4.80;2.70;;;;;;;12.10;nan;101027.34;5088211;28;20553;-68
2022/10/17 05:44:04;;;;;;;4.03;2.75;;;;;;;12.06;nan;101037.41;5086519;28;20036;-69
2022/10/17 05:46:29;;;;;;;3.50;2.65;;;;;;;12.02;nan;101041.34;5067235;28;20484;-69
2022/10/17 05:48:55;;;;;;;3.13;2.40;;;;;;;12.01;nan;101041.47;5088046;28;20409;-68
2022/10/17 05:51:20;;;;;;;3.38;2.22;;;;;;;11.99;nan;101038.13;5085007;28;20043;-68
2022/10/17 05:53:45;;;;;;;4.55;3.08;;;;;;;12.01;nan;101034.38;5085004;28;20043;-68
2022/10/17 05:56:12;;;;;;;4.43;2.70;;;;;;;12.01;nan;101034.38;5084970;28;20578;-68
2022/10/17 05:58:42;;;;;;;3.35;2.55;;;;;;;12.02;nan;101035.22;5083437;28;20129;-69
2022/10/17 06:01:08;;;;;;;3.53;2.80;;;;;;;12.04;nan;101043.84;5067337;28;20169;-68
2022/10/17 06:03:34;;;;;;;5.57;3.22;;;;;;;12.09;nan;101037.13;5084530;28;20505;-68
2022/10/17 06:06:09;;;;;;;4.50;2.88;;;;;;;12.15;nan;101042.78;5084533;28;20102;-69
2022/10/17 06:08:34;;;;;;;4.68;3.22;;;;;;;12.15;nan;101035.66;5081349;28;20037;-68
2022/10/17 06:10:59;;;;;;;4.50;3.30;;;;;;;12.14;nan;101039.31;5082938;28;20194;-69
2022/10/17 06:13:25;;;;;;;4.75;2.83;;;;;;;12.16;nan;101041.81;5085757;28;20055;-68
2022/10/17 06:15:50;;;;;;;3.17;2.35;;;;;;;12.16;nan;101053.25;5083496;28;20127;-68
2022/10/17 06:18:16;;;;;;;4.78;2.55;;;;;;;12.20;nan;101045.81;5079656;28;20047;-69
2022/10/17 06:20:41;;;;;;;5.15;3.28;;;;;;;12.21;nan;101053.66;5080017;28;20488;-68
2022/10/17 06:23:07;;;;;;;4.47;2.70;;;;;;;12.22;nan;101055.28;5096424;28;20749;-68
2022/10/17 06:25:32;;;;;;;3.42;2.53;;;;;;;12.26;nan;101056.69;5087623;28;20551;-68
2022/10/17 06:27:58;;;;;;;3.78;2.88;;;;;;;12.32;nan;101057.88;5082142;28;20040;-68
2022/10/17 06:30:23;;;;;;;8.15;3.17;;;;;;;12.40;nan;101055.34;5085864;28;20040;-68
2022/10/17 06:32:48;;;;;;;6.20;3.25;;;;;;;12.47;nan;101053.75;5086464;28;20036;-68
2022/10/17 06:35:14;;;;;;;4.85;2.88;;;;;;;12.53;nan;101065.56;5080649;28;20033;-68
2022/10/17 06:37:39;;;;;;;3.20;2.25;;;;;;;12.60;nan;101065.78;5083297;28;20074;-68
2022/10/17 06:40:07;;;;;;;4.72;2.83;;;;;;;12.64;nan;101064.50;5075350;28;20032;-69
2022/10/17 06:42:33;;;;;;;4.65;2.95;;;;;;;12.69;nan;101070.19;5077586;28;20377;-68
2022/10/17 06:44:58;;;;;;;4.03;2.80;;;;;;;12.73;nan;101076.88;5086614;28;20092;-69
2022/10/17 06:47:24;;;;;;;4.10;2.80;;;;;;;12.78;nan;101077.25;5082787;28;20078;-68
2022/10/17 06:49:49;;;;;;;4.28;2.85;;;;;;;12.85;nan;101082.78;5082746;28;20043;-68
2022/10/17 06:52:15;;;;;;;3.35;2.35;;;;;;;12.91;nan;101075.00;5066073;28;20580;-68
2022/10/17 06:54:43;;;;;;;5.93;2.75;;;;;;;13.00;nan;101075.09;5086278;28;20047;-69
2022/10/17 06:57:09;;;;;;;4.28;3.00;;;;;;;13.09;nan;101084.78;5090327;28;20032;-69
2022/10/17 06:59:34;;;;;;;4.00;2.90;;;;;;;13.16;nan;101083.19;5068890;28;20051;-69
2022/10/17 07:02:00;;;;;;;3.92;2.60;;;;;;;13.29;nan;101086.28;5087035;28;20143;-68
2022/10/17 07:04:26;;;;;;;3.50;2.40;;;;;;;13.38;nan;101087.19;5089448;28;20043;-68
2022/10/17 07:06:52;;;;;;;3.35;2.40;;;;;;;13.49;nan;101089.59;5088233;28;20417;-68
2022/10/17 07:09:17;;;;;;;3.55;2.25;;;;;;;13.67;nan;101105.44;5084738;28;20032;-69
2022/10/17 07:11:43;;;;;;;4.57;2.42;;;;;;;13.81;nan;101104.84;5090566;28;20142;-69
2022/10/17 07:14:08;;;;;;;3.45;2.35;;;;;;;13.94;nan;101108.91;5052215;28;20044;-69
2022/10/17 07:16:34;;;;;;;5.05;2.83;;;;;;;14.07;nan;101113.78;5082132;28;20393;-69
2022/10/17 07:18:59;;;;;;;4.20;2.83;;;;;;;14.19;nan;101120.47;5087561;28;20036;-68
2022/10/17 07:21:24;;;;;;;4.20;2.72;;;;;;;14.31;nan;101127.16;5096057;28;20043;-68
2022/10/17 07:23:50;;;;;;;5.10;3.00;;;;;;;14.44;nan;101124.03;5083136;28;20033;-69
2022/10/17 07:26:17;;;;;;;5.28;3.67;;;;;;;14.57;nan;101123.63;5080015;28;20102;-69
2022/10/17 07:28:44;;;;;;;4.30;3.47;;;;;;;14.65;nan;101131.59;5076775;28;20056;-69
2022/10/17 07:31:15;;;;;;;5.60;3.72;;;;;;;14.72;nan;101132.59;5090109;28;20089;-69
2022/10/17 07:33:41;;;;;;;;;;;;;;;14.79;nan;101125.63;5079547;28;20249;-69
2022/10/17 07:36:07;;;;;;;4.40;3.10;;;;;;;14.90;nan;101142.28;5085050;28;20137;-69
2022/10/17 07:38:33;;;;;;;5.57;3.42;;;;;;;15.00;nan;101143.78;5082173;28;20036;-69
2022/10/17 07:41:00;;;;;;;4.88;4.05;;;;;;;15.02;nan;101141.81;5086152;28;20047;-69
2022/10/17 07:43:27;;;;;;;5.25;3.83;;;;;;;15.08;nan;101143.78;5080822;28;20055;-69
2022/10/17 07:45:53;;;;;;;4.50;3.58;;;;;;;15.18;nan;101164.97;5065852;28;20446;-69
2022/10/17 07:48:19;;;;;;;5.75;3.67;;;;;;;15.30;nan;101165.44;5086489;28;20109;-69
2022/10/17 07:50:45;;;;;;;5.45;3.80;;;;;;;15.37;nan;101177.09;5080768;28;20079;-69
2022/10/17 07:53:10;;;;;;;5.88;3.60;;;;;;;15.46;nan;101173.41;5082058;28;20109;-69
2022/10/17 07:55:37;;;;;;;5.20;3.38;;;;;;;15.56;nan;101175.91;5083906;28;20548;-69
2022/10/17 07:58:02;;;;;;;7.18;3.60;;;;;;;15.66;nan;101176.59;5081842;28;20041;-69
2022/10/17 08:00:27;;;;;;;8.57;3.58;;;;;;;15.76;nan;101176.44;5080986;28;20044;-68
2022/10/17 08:02:53;;;;;;;5.50;3.85;;;;;;;15.83;nan;101172.06;5085884;28;20035;-69
2022/10/17 08:05:18;;;;;;;5.60;3.85;;;;;;;15.95;nan;101172.56;5089725;28;20501;-69
2022/10/17 08:07:43;;;;;;;6.18;3.67;;;;;;;16.06;nan;101171.34;5079452;28;20031;-68
2022/10/17 08:10:12;;;;;;;5.22;3.38;;;;;;;16.17;nan;101173.63;5082157;28;20036;-69
2022/10/17 08:12:37;;;;;;;5.13;3.03;;;;;;;16.29;nan;101177.59;5081415;28;20116;-69
2022/10/17 08:15:04;;;;;;;4.30;2.80;;;;;;;16.44;nan;101175.00;5081388;28;20033;-69
2022/10/17 08:17:30;;;;;;;3.72;2.55;;;;;;;16.59;nan;101175.13;5081528;28;20316;-69
2022/10/17 08:19:55;;;;;;;5.20;3.00;;;;;;;16.76;nan;101173.19;5084127;28;20036;-69
2022/10/17 08:22:20;;;;;;;4.70;2.58;;;;;;;16.99;nan;101173.22;5087318;28;20066;-69
2022/10/17 08:24:45;;;;;;;4.45;2.30;;;;;;;17.36;nan;101174.28;5080821;28;20048;-69
2022/10/17 08:27:12;;;;;;;3.75;2.20;;;;;;;17.89;nan;101167.09;5083960;28;20035;-69
2022/10/17 08:29:39;;;;;;;4.07;2.30;;;;;;;18.34;nan;101180.44;5084502;28;20078;-69
2022/10/17 08:32:06;;;;;;;2.67;2.00;;;;;;;18.70;nan;101176.97;5080199;28;20036;-69
2022/10/17 08:34:31;;;;;;;2.63;2.03;;;;;;;19.14;nan;101178.66;5080453;28;20040;-69
2022/10/17 08:36:56;;;;;;;2.75;1.80;;;;;;;19.63;nan;101169.78;5086783;28;20081;-69
2022/10/17 08:39:25;;;;;;;5.22;2.20;;;;;;;20.05;nan;101176.06;5087114;28;20048;-69
2022/10/17 08:42:18;;;;;;;3.75;2.03;;;;;;;20.36;nan;101178.28;5087427;28;20069;-69
2022/10/17 08:44:59;;;;;;;2.58;1.80;;;;;;;20.42;nan;101174.78;5078966;28;20058;-69
2022/10/17 08:47:44;;;;;;;5.82;2.65;;;;;;;20.34;nan;101167.72;5083043;28;20040;-69
2022/10/17 08:50:23;;;;;;;3.38;2.22;;;;;;;20.27;nan;101168.72;5078500;28;20044;-69
2022/10/17 08:52:53;;;;;;;3.75;2.10;;;;;;;20.19;nan;101175.09;5066903;28;20488;-69
2022/10/17 08:55:31;;;;;;;3.83;2.30;;;;;;;20.12;nan;101167.00;5082066;28;20167;-69
2022/10/17 08:57:56;;;;;;;3.63;2.03;;;;;;;20.15;nan;101163.09;5078564;28;20304;-69
2022/10/17 09:00:22;;;;;;;3.90;2.10;;;;;;;20.20;nan;101162.50;5081081;28;26270;-69
2022/10/17 09:03:02;;;;;;;3.83;2.17;;;;;;;20.17;nan;101157.53;5076473;28;20131;-69
2022/10/17 09:05:48;;;;;;;3.45;2.28;;;;;;;20.23;nan;101154.03;5087808;28;20028;-69
2022/10/17 09:08:34;;;;;;;3.80;1.90;;;;;;;20.24;nan;101163.78;5079796;28;20032;-69
2022/10/17 09:11:18;;;;;;;3.08;1.75;;;;;;;20.34;nan;101156.16;5081062;28;20055;-69
2022/10/17 09:14:17;;;;;;;4.03;1.70;;;;;;;20.43;nan;101160.31;5065418;28;20089;-69
2022/10/17 09:17:01;;;;;;;5.18;2.00;;;;;;;20.54;nan;101167.78;5081679;28;20181;-69
2022/10/17 09:19:43;;;;;;;2.90;1.58;;;;;;;20.64;nan;101159.41;5078360;28;20089;-69
2022/10/17 09:22:17;;;;;;;4.07;1.80;;;;;;;20.74;nan;101180.50;5082200;28;20217;-69
2022/10/17 09:25:10;;;;;;;3.50;2.03;;;;;;;20.78;nan;101185.28;5081153;28;20040;-69
2022/10/17 09:27:41;;;;;;;6.03;2.10;;;;;;;20.84;nan;101186.31;5078995;28;20051;-69
2022/10/17 09:30:27;;;;;;;2.50;1.80;;;;;;;20.90;nan;101188.16;5083869;28;20020;-69
2022/10/17 09:32:52;;;;;;;4.13;2.10;;;;;;;20.94;nan;101193.97;5082633;28;20409;-69
2022/10/17 09:35:19;;;;;;;4.38;1.95;;;;;;;20.91;nan;101199.78;5082469;28;20047;-69
2022/10/17 09:37:45;;;;;;;4.32;2.00;;;;;;;20.93;nan;101201.22;5064906;28;20137;-69
2022/10/17 09:40:32;;;;;;;4.93;2.30;;;;;;;20.95;nan;101192.94;5077259;28;20095;-69
2022/10/17 09:42:58;;;;;;;3.65;1.80;;;;;;;20.97;nan;101202.47;5077449;28;20420;-69
2022/10/17 09:45:29;;;;;;;3.28;2.00;;;;;;;20.95;nan;101195.63;5067003;28;20032;-69
2022/10/17 09:48:05;;;;;;;4.00;1.90;;;;;;;20.97;nan;101199.78;5083732;28;20062;-69
2022/10/17 09:50:32;;;;;;;3.65;1.52;;;;;;;21.07;nan;101188.63;5084395;28;20032;-69
2022/10/17 09:53:07;;;;;;;4.80;1.70;;;;;;;21.21;nan;101197.53;5083817;28;20077;-69
2022/10/17 09:55:43;;;;;;;4.38;2.08;;;;;;;21.21;nan;101186.75;5062880;28;20032;-69
2022/10/17 09:58:10;;;;;;;3.47;1.80;;;;;;;21.28;nan;101195.66;5082196;28;20032;-69
2022/10/17 10:00:41;;;;;;;3.10;1.80;;;;;;;21.32;nan;101199.59;5073298;28;20463;-69
2022/10/17 10:03:14;;;;;;;5.38;1.70;;;;;;;21.63;nan;101192.81;5075073;28;20082;-69
2022/10/17 10:05:41;;;;;;;3.22;1.75;;;;;;;22.47;nan;101191.16;5085051;28;20039;-69
2022/10/17 10:08:17;;;;;;;3.53;1.90;;;;;;;23.45;nan;101195.31;5081735;28;20043;-69
2022/10/17 10:10:43;;;;;;;2.92;1.60;;;;;;;24.73;nan;101205.38;5074804;28;20032;-69
2022/10/17 10:13:12;;;;;;;4.20;1.70;;;;;;;25.71;nan;101203.22;5063982;28;20105;-69
2022/10/17 10:15:43;;;;;;;4.85;1.67;;;;;;;26.50;nan;101202.75;5083340;28;20096;-70
2022/10/17 10:18:31;;;;;;;3.97;1.40;;;;;;;27.07;nan;101216.31;5076957;28;20132;-69
2022/10/17 10:21:15;;;;;;;4.22;1.52;;;;;;;27.66;nan;101224.09;5084652;28;20476;-69
2022/10/17 10:23:43;;;;;;;3.50;1.45;;;;;;;27.90;nan;101223.94;5083295;28;20472;-69
2022/10/17 10:26:22;;;;;;;3.03;1.48;;;;;;;28.50;nan;101231.25;5078725;28;20036;-70
2022/10/17 10:28:52;;;;;;;2.80;1.40;;;;;;;28.93;nan;101229.53;5080928;28;20036;-69
2022/10/17 10:31:25;;;;;;;1.50;1.00;;;;;;;29.70;nan;101235.69;5074002;28;20032;-67
2022/10/17 10:33:51;;;;;;;3.70;1.38;;;;;;;30.35;nan;101227.31;5083589;28;20127;-67
2022/10/17 10:36:16;;;;;;;2.28;1.40;;;;;;;30.81;nan;101227.44;5064415;28;20119;-67
2022/10/17 10:38:52;;;;;;;2.78;1.27;;;;;;;31.41;nan;101223.13;5081643;28;20050;-67
2022/10/17 10:41:17;;;;;;;4.40;1.63;;;;;;;31.49;nan;101216.31;5069780;28;20492;-68
2022/10/17 10:43:46;;;;;;;2.58;1.23;;;;;;;31.57;nan;101220.41;5083079;28;20089;-67
2022/10/17 10:46:24;;;;;;;2.78;1.60;;;;;;;31.53;nan;101212.75;5083462;28;20093;-68
2022/10/17 10:48:58;;;;;;;8.50;1.95;;;;;;;31.46;nan;101214.97;5084501;28;20115;-67
2022/10/17 10:51:41;;;;;;;2.20;1.30;;;;;;;31.61;nan;101210.56;5084480;28;20115;-67
2022/10/17 10:54:18;;;;;;;6.22;1.70;;;;;;;31.99;nan;101211.00;5082387;28;20028;-68
2022/10/17 10:56:48;;;;;;;4.00;1.50;;;;;;;32.45;nan;101205.34;5086680;28;20032;-67
2022/10/17 10:59:46;;;;;;;2.60;1.50;;;;;;;32.89;nan;101212.75;5077876;28;20115;-67
2022/10/17 11:02:18;;;;;;;;;;;;;;;32.99;nan;101208.03;5052317;28;20401;-67
2022/10/17 11:04:45;;;;;;;3.63;1.50;;;;;;;33.18;nan;101210.91;5084865;28;20215;-67
2022/10/17 11:07:22;;;;;;;2.97;1.42;;;;;;;33.09;nan;101207.16;5086784;28;20032;-67
2022/10/17 11:10:10;;;;;;;2.85;1.30;;;;;;;32.46;nan;101209.72;5081212;28;20064;-67
2022/10/17 11:12:57;;;;;;;4.03;1.45;;;;;;;31.43;nan;101209.22;5081017;28;20046;-67
2022/10/17 11:15:43;;;;;;;4.38;1.70;;;;;;;30.38;nan;101205.75;5082501;28;20044;-67
2022/10/17 11:18:19;;;;;;;3.28;1.60;;;;;;;29.18;nan;101207.19;5082230;28;20502;-68
2022/10/17 11:21:15;;;;;;;2.70;1.75;;;;;;;28.50;nan;101206.75;5085374;28;20184;-68
2022/10/17 11:23:52;;;;;;;6.25;1.63;;;;;;;27.85;nan;101210.28;5084350;28;20051;-68
2022/10/17 11:26:25;;;;;;;2.63;1.60;;;;;;;27.27;nan;101212.38;5088218;28;20043;-68
2022/10/17 11:28:56;;;;;;;5.13;1.58;;;;;;;26.93;nan;101211.44;5086450;28;20048;-68
2022/10/17 11:31:25;;;;;;;4.25;1.60;;;;;;;26.57;nan;101227.88;5085239;28;20043;-68
2022/10/17 11:33:55;;;;;;;3.53;1.52;;;;;;;26.44;nan;101230.84;5084825;28;20131;-68
2022/10/17 11:36:26;;;;;;;5.03;1.65;;;;;;;26.10;nan;101229.84;5067905;28;20032;-68
2022/10/17 11:38:59;;;;;;;4.25;1.80;;;;;;;25.75;nan;101227.97;5067369;28;20496;-68
2022/10/17 11:41:38;;;;;;;4.82;1.77;;;;;;;25.56;nan;101230.78;5085352;28;20039;-68
2022/10/17 11:44:17;;;;;;;3.55;1.58;;;;;;;25.49;nan;101221.94;5087882;28;20162;-68
2022/10/17 11:46:47;;;;;;;4.82;1.75;;;;;;;25.41;nan;101219.59;5087594;28;20131;-68
2022/10/17 11:49:19;;;;;;;5.95;1.88;;;;;;;25.24;nan;101214.00;5083969;28;20080;-68
2022/10/17 11:51:56;;;;;;;3.97;1.67;;;;;;;24.99;nan;101219.59;5087918;28;20072;-68
2022/10/17 11:54:30;;;;;;;4.07;1.73;;;;;;;24.71;nan;101222.88;5087770;28;20561;-68
2022/10/17 11:57:11;;;;;;;2.25;1.55;;;;;;;24.62;nan;101216.13;5084973;28;21950;-68